Time;durP1;ratioP1;P1;durP2;ratioP2;P2;SDS_P1;SDS_P2;PMS_P1;PMS_P2;Temp;Humidity;BMP_temperature;BMP_pressure;BME280_temperature;BME280_humidity;BME280_pressure;Samples;Min_cycle;Max_cycle;Signal;HPM_P1;HPM_P2
2023/10/05 00:01:12;;;;;;;9.60;2.20;;;;;;;;;;6280553;28;20341;-69
2023/10/05 00:04:16;;;;;;;3.30;1.83;;;;;;;;;;6280168;28;20299;-69
2023/10/05 00:07:23;;;;;;;10.75;2.00;;;;;;;;;;6281012;28;20303;-69
2023/10/05 00:10:29;;;;;;;12.20;1.77;;;;;;;;;;6280285;28;20291;-68
2023/10/05 00:13:34;;;;;;;8.35;1.63;;;;;;;;;;6280042;28;20298;-69
2023/10/05 00:16:38;;;;;;;12.13;2.03;;;;;;;;;;6280465;28;20318;-69
2023/10/05 00:19:42;;;;;;;8.10;1.52;;;;;;;;;;6280160;28;20303;-68
2023/10/05 00:22:49;;;;;;;5.43;1.48;;;;;;;;;;6280703;28;20300;-70
2023/10/05 00:25:55;;;;;;;16.77;1.88;;;;;;;;;;6279366;28;20357;-70
2023/10/05 00:29:05;;;;;;;11.73;1.60;;;;;;;;;;6280205;28;20291;-69
2023/10/05 00:32:20;;;;;;;6.97;1.42;;;;;;;;;;6280705;28;20311;-69
2023/10/05 00:35:27;;;;;;;5.55;2.00;;;;;;;;;;6278813;28;20299;-69
2023/10/05 00:38:31;;;;;;;13.00;2.17;;;;;;;;;;6278654;28;20302;-68
2023/10/05 00:41:36;;;;;;;6.03;1.58;;;;;;;;;;6278592;28;20306;-70
2023/10/05 00:44:41;;;;;;;15.57;2.28;;;;;;;;;;6280195;28;20303;-69
2023/10/05 00:47:45;;;;;;;13.82;2.22;;;;;;;;;;6280552;28;20347;-69
2023/10/05 00:50:51;;;;;;;10.82;2.20;;;;;;;;;;6312071;28;20298;-69
2023/10/05 00:53:58;;;;;;;9.65;1.98;;;;;;;;;;6279845;28;20290;-69
2023/10/05 00:57:09;;;;;;;18.30;2.10;;;;;;;;;;6278919;28;20307;-69
2023/10/05 01:00:26;;;;;;;4.43;2.17;;;;;;;;;;6278702;28;20299;-70
2023/10/05 01:03:44;;;;;;;6.82;1.85;;;;;;;;;;6279752;28;20374;-69
2023/10/05 01:06:55;;;;;;;6.75;1.75;;;;;;;;;;6252075;28;20316;-69
2023/10/05 01:13:28;;;;;;;6.30;1.83;;;;;;;;;;6254683;28;20318;-69
2023/10/05 01:16:33;;;;;;;15.20;2.50;;;;;;;;;;6255251;28;20296;-69
2023/10/05 01:19:39;;;;;;;13.65;2.13;;;;;;;;;;6254744;28;20299;-68
2023/10/05 01:22:44;;;;;;;9.85;2.38;;;;;;;;;;6253851;28;20552;-69
2023/10/05 01:25:49;;;;;;;9.07;2.53;;;;;;;;;;6254840;28;20612;-72
2023/10/05 01:28:54;;;;;;;14.55;2.72;;;;;;;;;;6255447;28;20299;-69
2023/10/05 01:31:58;;;;;;;13.40;2.30;;;;;;;;;;6255514;28;20314;-70
2023/10/05 01:35:06;;;;;;;16.42;2.47;;;;;;;;;;6255359;28;20315;-69
2023/10/05 01:38:14;;;;;;;5.07;1.70;;;;;;;;;;6254021;28;20307;-69
2023/10/05 01:41:21;;;;;;;8.35;2.00;;;;;;;;;;6258229;28;20575;-70
2023/10/05 01:44:26;;;;;;;11.25;2.15;;;;;;;;;;6259314;28;20484;-69
2023/10/05 01:47:31;;;;;;;9.90;2.00;;;;;;;;;;6259931;28;20804;-69
2023/10/05 01:50:36;;;;;;;10.25;2.10;;;;;;;;;;6258180;28;20291;-71
2023/10/05 01:53:40;;;;;;;11.57;1.85;;;;;;;;;;6258115;28;20295;-69
2023/10/05 01:56:47;;;;;;;6.30;1.77;;;;;;;;;;6258279;28;20300;-69
2023/10/05 01:59:51;;;;;;;12.13;1.90;;;;;;;;;;6257665;28;20535;-70
2023/10/05 02:02:55;;;;;;;14.27;1.88;;;;;;;;;;6257950;28;20502;-69
2023/10/05 02:06:05;;;;;;;13.75;2.00;;;;;;;;;;6259292;28;20583;-70
2023/10/05 02:09:10;;;;;;;8.75;2.05;;;;;;;;;;6259118;28;20389;-69
2023/10/05 02:12:16;;;;;;;9.13;2.08;;;;;;;;;;6259212;28;20295;-69
2023/10/05 02:15:20;;;;;;;4.68;1.73;;;;;;;;;;6258665;28;20291;-70
2023/10/05 02:18:24;;;;;;;7.45;2.10;;;;;;;;;;6257162;28;20307;-69
2023/10/05 02:21:30;;;;;;;13.30;2.13;;;;;;;;;;6259014;28;20553;-70
2023/10/05 02:24:35;;;;;;;6.28;1.90;;;;;;;;;;6258391;28;20388;-71
2023/10/05 02:27:46;;;;;;;6.80;1.92;;;;;;;;;;6281567;28;20299;-69
2023/10/05 02:30:51;;;;;;;15.45;1.75;;;;;;;;;;6283239;28;20493;-68
2023/10/05 02:33:56;;;;;;;6.25;1.83;;;;;;;;;;6282152;28;20327;-69
2023/10/05 02:37:00;;;;;;;5.22;2.05;;;;;;;;;;6283239;28;20307;-68
2023/10/05 02:40:08;;;;;;;1.42;1.33;;;;;;;;;;6279586;28;20354;-69
2023/10/05 02:43:15;;;;;;;5.15;1.60;;;;;;;;;;6283347;28;20292;-69
2023/10/05 02:46:24;;;;;;;4.90;1.60;;;;;;;;;;6261747;28;20623;-70
2023/10/05 02:49:28;;;;;;;12.35;1.52;;;;;;;;;;6281278;28;20291;-68
2023/10/05 02:52:33;;;;;;;5.10;1.58;;;;;;;;;;6281851;28;20303;-71
2023/10/05 02:55:37;;;;;;;2.03;1.38;;;;;;;;;;6282479;28;20311;-68
2023/10/05 02:58:43;;;;;;;4.55;1.30;;;;;;;;;;6280919;28;20298;-68
2023/10/05 03:01:47;;;;;;;5.28;1.95;;;;;;;;;;6282799;28;20379;-70
2023/10/05 03:04:57;;;;;;;9.45;3.25;;;;;;;;;;6278930;28;20294;-70
2023/10/05 03:08:04;;;;;;;12.50;1.80;;;;;;;;;;6280178;28;20290;-70
2023/10/05 03:11:10;;;;;;;7.45;1.67;;;;;;;;;;6282098;28;20294;-69
2023/10/05 03:14:17;;;;;;;5.60;1.42;;;;;;;;;;6257680;28;20480;-68
2023/10/05 03:17:26;;;;;;;9.40;2.10;;;;;;;;;;6256289;28;20459;-70
2023/10/05 03:20:31;;;;;;;5.55;1.95;;;;;;;;;;6262102;28;20291;-70
2023/10/05 03:23:36;;;;;;;6.95;1.88;;;;;;;;;;6282420;28;20337;-69
2023/10/05 03:26:41;;;;;;;8.00;1.80;;;;;;;;;;6281660;28;20295;-70
2023/10/05 03:29:47;;;;;;;5.63;1.48;;;;;;;;;;6280558;28;20314;-69
2023/10/05 03:32:52;;;;;;;10.35;1.92;;;;;;;;;;6282201;28;20294;-71
2023/10/05 03:35:58;;;;;;;5.70;1.70;;;;;;;;;;6279923;28;20298;-70
2023/10/05 03:39:06;;;;;;;4.88;1.55;;;;;;;;;;6278522;28;20460;-76
2023/10/05 03:42:13;;;;;;;6.85;1.98;;;;;;;;;;6280154;28;20462;-70
2023/10/05 03:45:22;;;;;;;4.28;1.77;;;;;;;;;;6281446;28;20298;-69
2023/10/05 03:48:26;;;;;;;10.52;1.92;;;;;;;;;;6280080;28;20307;-70
2023/10/05 03:51:31;;;;;;;4.25;1.75;;;;;;;;;;6279736;28;20306;-70
2023/10/05 03:54:38;;;;;;;8.95;1.58;;;;;;;;;;6279709;28;20315;-70
2023/10/05 03:57:42;;;;;;;5.43;1.52;;;;;;;;;;6281092;28;20287;-69
2023/10/05 04:00:49;;;;;;;5.80;1.73;;;;;;;;;;6279261;28;20287;-69
2023/10/05 04:03:55;;;;;;;5.68;1.60;;;;;;;;;;6279949;28;20294;-70
2023/10/05 04:06:59;;;;;;;9.50;1.80;;;;;;;;;;6280879;28;20375;-70
2023/10/05 04:10:03;;;;;;;8.65;2.03;;;;;;;;;;6280763;28;20295;-69
2023/10/05 04:13:08;;;;;;;8.55;1.95;;;;;;;;;;6280884;28;20290;-69
2023/10/05 04:16:17;;;;;;;9.30;1.77;;;;;;;;;;6280513;28;20291;-70
2023/10/05 04:19:22;;;;;;;6.45;2.20;;;;;;;;;;6281089;28;20287;-69
2023/10/05 04:22:26;;;;;;;9.68;2.20;;;;;;;;;;6280534;28;20303;-70
2023/10/05 04:25:30;;;;;;;8.98;1.95;;;;;;;;;;6280295;28;20605;-69
2023/10/05 04:28:39;;;;;;;5.65;1.52;;;;;;;;;;6279411;28;20330;-69
2023/10/05 04:31:48;;;;;;;4.57;2.10;;;;;;;;;;6280127;28;20314;-69
2023/10/05 04:34:52;;;;;;;5.90;1.50;;;;;;;;;;6280045;28;20291;-70
2023/10/05 04:37:59;;;;;;;5.72;1.75;;;;;;;;;;6280571;28;20584;-70
2023/10/05 04:41:03;;;;;;;4.75;1.50;;;;;;;;;;6278231;28;20303;-69
2023/10/05 04:44:07;;;;;;;8.75;1.70;;;;;;;;;;6280407;28;20295;-69
2023/10/05 04:47:13;;;;;;;5.70;2.00;;;;;;;;;;6279931;28;20299;-69
2023/10/05 04:50:17;;;;;;;4.38;1.70;;;;;;;;;;6279723;28;20302;-69
2023/10/05 04:53:21;;;;;;;12.45;2.13;;;;;;;;;;6280739;28;20335;-70
2023/10/05 04:59:58;;;;;;;3.13;1.70;;;;;;;;;;6278427;28;20326;-71
2023/10/05 05:03:05;;;;;;;8.35;2.05;;;;;;;;;;6280978;28;20489;-70
2023/10/05 05:06:11;;;;;;;5.85;1.75;;;;;;;;;;6279413;28;20612;-70
2023/10/05 05:09:17;;;;;;;9.52;1.75;;;;;;;;;;6279952;28;20303;-70
2023/10/05 05:12:24;;;;;;;9.52;1.80;;;;;;;;;;6286427;28;20299;-68
2023/10/05 05:15:28;;;;;;;5.38;1.92;;;;;;;;;;6284956;28;20291;-69
2023/10/05 05:18:37;;;;;;;8.32;2.08;;;;;;;;;;6285086;28;20283;-69
2023/10/05 05:21:41;;;;;;;5.25;2.20;;;;;;;;;;6275793;28;20402;-69
2023/10/05 05:24:46;;;;;;;6.40;1.98;;;;;;;;;;6284997;28;20263;-69
2023/10/05 05:27:50;;;;;;;7.07;1.88;;;;;;;;;;6284800;28;20275;-70
2023/10/05 05:30:54;;;;;;;9.55;2.60;;;;;;;;;;6284402;28;20328;-70
2023/10/05 05:34:00;;;;;;;5.53;1.90;;;;;;;;;;6284729;28;20337;-71
2023/10/05 05:37:04;;;;;;;4.15;1.52;;;;;;;;;;6284635;28;20291;-69
2023/10/05 05:40:12;;;;;;;7.38;1.90;;;;;;;;;;6282373;28;20306;-69
2023/10/05 05:43:16;;;;;;;5.05;1.27;;;;;;;;;;6284627;28;20579;-69
2023/10/05 05:46:20;;;;;;;2.30;1.25;;;;;;;;;;6284010;28;20298;-71
2023/10/05 05:49:27;;;;;;;8.10;1.50;;;;;;;;;;6284392;28;20310;-69
2023/10/05 05:52:31;;;;;;;8.25;1.58;;;;;;;;;;6283657;28;20291;-69
2023/10/05 05:55:35;;;;;;;1.00;1.00;;;;;;;;;;6283715;28;20572;-69
2023/10/05 05:58:39;;;;;;;1.45;1.38;;;;;;;;;;6284527;28;20331;-69
2023/10/05 06:01:43;;;;;;;1.00;1.00;;;;;;;;;;6283813;28;20298;-68
2023/10/05 06:04:49;;;;;;;1.65;1.10;;;;;;;;;;6283600;28;20290;-69
2023/10/05 06:07:54;;;;;;;2.40;0.90;;;;;;;;;;6283951;28;20286;-68
2023/10/05 06:10:58;;;;;;;1.10;1.10;;;;;;;;;;6283560;28;20614;-70
2023/10/05 06:14:03;;;;;;;0.93;0.93;;;;;;;;;;6258949;28;20283;-69
2023/10/05 06:17:06;;;;;;;1.70;0.90;;;;;;;;;;6258502;28;20287;-70
2023/10/05 06:20:14;;;;;;;0.80;0.80;;;;;;;;;;6258630;28;20299;-71
2023/10/05 06:23:19;;;;;;;3.88;0.82;;;;;;;;;;6259144;28;20303;-71
2023/10/05 06:26:24;;;;;;;0.93;0.93;;;;;;;;;;6257773;28;20632;-69
2023/10/05 06:29:28;;;;;;;1.63;1.05;;;;;;;;;;6258595;28;20363;-72
2023/10/05 06:32:32;;;;;;;1.45;0.75;;;;;;;;;;6257904;28;20291;-70
2023/10/05 06:35:37;;;;;;;4.32;1.00;;;;;;;;;;6257906;28;20315;-69
2023/10/05 06:38:41;;;;;;;0.90;0.90;;;;;;;;;;6258637;28;20547;-70
2023/10/05 06:41:45;;;;;;;1.10;1.02;;;;;;;;;;6278336;28;20302;-70
2023/10/05 06:44:50;;;;;;;0.90;0.90;;;;;;;;;;6281558;28;20485;-70
2023/10/05 06:47:54;;;;;;;0.70;0.70;;;;;;;;;;6283276;28;20295;-70
2023/10/05 06:50:59;;;;;;;4.18;0.90;;;;;;;;;;6282429;28;20506;-69
2023/10/05 06:54:03;;;;;;;0.90;0.90;;;;;;;;;;6283050;28;20334;-70
2023/10/05 06:57:07;;;;;;;1.60;0.70;;;;;;;;;;6282525;28;20306;-70
2023/10/05 07:00:16;;;;;;;1.67;1.25;;;;;;;;;;6282354;28;20564;-70
2023/10/05 07:03:21;;;;;;;1.10;1.00;;;;;;;;;;6283125;28;20295;-71
2023/10/05 07:06:29;;;;;;;1.10;0.90;;;;;;;;;;6282513;28;20302;-71
2023/10/05 07:09:33;;;;;;;2.08;0.90;;;;;;;;;;6283126;28;20291;-70
2023/10/05 07:12:39;;;;;;;0.95;0.90;;;;;;;;;;6282042;28;20298;-70
2023/10/05 07:15:43;;;;;;;0.90;0.80;;;;;;;;;;6265480;28;20418;-70
2023/10/05 07:18:47;;;;;;;0.70;0.70;;;;;;;;;;6282944;28;20247;-71
2023/10/05 07:21:54;;;;;;;1.50;0.90;;;;;;;;;;6282166;28;20311;-70
2023/10/05 07:24:57;;;;;;;1.58;1.20;;;;;;;;;;6282120;28;20255;-71
2023/10/05 07:28:03;;;;;;;1.05;1.00;;;;;;;;;;6282194;28;20290;-70
2023/10/05 07:31:07;;;;;;;0.70;0.70;;;;;;;;;;6281650;28;20230;-70
2023/10/05 07:34:13;;;;;;;1.83;0.80;;;;;;;;;;6282244;28;20390;-70
2023/10/05 07:37:18;;;;;;;0.95;0.95;;;;;;;;;;6280464;28;20295;-70
2023/10/05 07:40:23;;;;;;;0.82;0.82;;;;;;;;;;6274753;28;20303;-71
2023/10/05 07:43:27;;;;;;;0.82;0.82;;;;;;;;;;6281918;28;20484;-70
2023/10/05 07:46:32;;;;;;;2.15;0.80;;;;;;;;;;6281052;28;20298;-70
2023/10/05 07:49:36;;;;;;;0.80;0.80;;;;;;;;;;6281424;28;20306;-70
2023/10/05 07:52:44;;;;;;;0.82;0.80;;;;;;;;;;6281196;28;20306;-71
2023/10/05 07:55:48;;;;;;;0.77;0.77;;;;;;;;;;6280867;28;20311;-70
2023/10/05 07:58:51;;;;;;;2.40;0.75;;;;;;;;;;6281438;28;20310;-70
2023/10/05 08:01:55;;;;;;;0.80;0.80;;;;;;;;;;6280881;28;20326;-70
2023/10/05 08:04:59;;;;;;;0.70;0.70;;;;;;;;;;6280113;28;20295;-70
2023/10/05 08:08:06;;;;;;;0.75;0.75;;;;;;;;;;6281555;28;20315;-69
2023/10/05 08:11:12;;;;;;;4.85;0.85;;;;;;;;;;6280789;28;20314;-69
2023/10/05 08:14:17;;;;;;;1.27;0.77;;;;;;;;;;6281070;28;20295;-70
2023/10/05 08:17:21;;;;;;;2.28;0.88;;;;;;;;;;6280454;28;20314;-70
2023/10/05 08:20:26;;;;;;;0.65;0.65;;;;;;;;;;6279553;28;20303;-70
2023/10/05 08:23:33;;;;;;;0.70;0.70;;;;;;;;;;6280776;28;20630;-71
2023/10/05 08:26:39;;;;;;;0.80;0.80;;;;;;;;;;6280292;28;20298;-70
2023/10/05 08:29:44;;;;;;;1.80;0.80;;;;;;;;;;6280336;28;20299;-70
2023/10/05 08:32:48;;;;;;;1.00;0.80;;;;;;;;;;6280595;28;20303;-70
2023/10/05 08:35:53;;;;;;;1.10;1.10;;;;;;;;;;6280002;28;20307;-70
2023/10/05 08:38:58;;;;;;;0.80;0.80;;;;;;;;;;6280871;28;20471;-72
2023/10/05 08:42:06;;;;;;;2.15;1.10;;;;;;;;;;6279511;28;20362;-71
2023/10/05 08:45:12;;;;;;;0.88;0.80;;;;;;;;;;6280108;28;20303;-70
2023/10/05 08:48:19;;;;;;;0.90;0.90;;;;;;;;;;6280024;28;20295;-69
2023/10/05 08:51:25;;;;;;;2.70;1.00;;;;;;;;;;6279901;28;20362;-69
2023/10/05 08:54:33;;;;;;;0.80;0.80;;;;;;;;;;6279344;28;20314;-70
2023/10/05 08:57:37;;;;;;;0.90;0.90;;;;;;;;;;6278672;28;20326;-71
2023/10/05 09:00:42;;;;;;;0.80;0.80;;;;;;;;;;6255011;28;20487;-71
2023/10/05 09:03:50;;;;;;;0.80;0.80;;;;;;;;;;6255675;28;20244;-70
2023/10/05 09:06:56;;;;;;;1.00;1.00;;;;;;;;;;6255238;28;20311;-71
2023/10/05 09:10:02;;;;;;;1.45;0.90;;;;;;;;;;6255014;28;20235;-70
2023/10/05 09:13:12;;;;;;;2.92;1.25;;;;;;;;;;6255512;28;20293;-71
2023/10/05 09:16:30;;;;;;;2.20;0.90;;;;;;;;;;6255588;28;20322;-72
2023/10/05 09:19:34;;;;;;;0.98;0.90;;;;;;;;;;6255725;28;20601;-71
2023/10/05 09:22:48;;;;;;;1.25;0.75;;;;;;;;;;6255295;28;20311;-71
2023/10/05 09:25:54;;;;;;;1.10;1.10;;;;;;;;;;6254829;28;20367;-72
2023/10/05 09:29:12;;;;;;;1.17;1.10;;;;;;;;;;6254692;28;20307;-70
2023/10/05 09:32:25;;;;;;;2.45;1.10;;;;;;;;;;6254731;28;20299;-71
2023/10/05 09:35:31;;;;;;;1.10;1.10;;;;;;;;;;6255173;28;20283;-69
2023/10/05 09:38:38;;;;;;;0.90;0.90;;;;;;;;;;6255119;28;20375;-71
2023/10/05 09:41:49;;;;;;;1.92;1.00;;;;;;;;;;6252655;28;20295;-70
2023/10/05 09:44:57;;;;;;;1.48;1.15;;;;;;;;;;6254927;28;20288;-71
2023/10/05 09:48:02;;;;;;;1.70;1.17;;;;;;;;;;6255256;28;20648;-71
2023/10/05 09:51:10;;;;;;;1.30;1.15;;;;;;;;;;6254749;28;20295;-70
2023/10/05 09:54:15;;;;;;;1.65;1.10;;;;;;;;;;6256873;28;20296;-72
2023/10/05 09:57:26;;;;;;;1.20;1.20;;;;;;;;;;6256822;28;20558;-70
2023/10/05 10:00:30;;;;;;;3.05;1.30;;;;;;;;;;6256253;28;20292;-71
2023/10/05 10:03:36;;;;;;;1.90;1.17;;;;;;;;;;6259396;28;20311;-71
2023/10/05 10:06:40;;;;;;;2.90;1.35;;;;;;;;;;6283114;28;20291;-71
2023/10/05 10:09:46;;;;;;;1.80;1.10;;;;;;;;;;6283703;28;20243;-71
2023/10/05 10:12:53;;;;;;;2.45;1.17;;;;;;;;;;6284081;28;20276;-71
2023/10/05 10:15:58;;;;;;;2.58;1.50;;;;;;;;;;6284601;28;20291;-71
2023/10/05 10:19:07;;;;;;;3.15;1.83;;;;;;;;;;6284447;28;20302;-70
2023/10/05 10:22:12;;;;;;;2.35;1.17;;;;;;;;;;6282632;28;20323;-71
2023/10/05 10:25:33;;;;;;;1.67;1.50;;;;;;;;;;6282479;28;20298;-70
2023/10/05 10:28:56;;;;;;;2.03;1.15;;;;;;;;;;6284071;28;20299;-70
2023/10/05 10:32:24;;;;;;;3.25;1.83;;;;;;;;;;6283473;28;20619;-71
2023/10/05 10:35:32;;;;;;;3.65;1.58;;;;;;;;;;6284074;28;20299;-71
2023/10/05 10:38:36;;;;;;;1.70;1.60;;;;;;;;;;6284423;28;20294;-72
2023/10/05 10:41:54;;;;;;;2.85;1.40;;;;;;;;;;6281860;28;20473;-71
2023/10/05 10:44:59;;;;;;;1.90;1.35;;;;;;;;;;6283049;28;20488;-72
2023/10/05 10:48:08;;;;;;;3.78;1.50;;;;;;;;;;6283267;28;20302;-70
2023/10/05 10:51:12;;;;;;;4.25;1.20;;;;;;;;;;6282709;28;20304;-70
2023/10/05 10:54:19;;;;;;;2.30;1.30;;;;;;;;;;6283479;28;20325;-72
2023/10/05 10:57:23;;;;;;;1.40;1.40;;;;;;;;;;6282473;28;20318;-70
2023/10/05 11:00:56;;;;;;;1.30;1.30;;;;;;;;;;6283039;28;20621;-71
2023/10/05 11:04:04;;;;;;;3.67;1.55;;;;;;;;;;6282529;28;20469;-69
2023/10/05 11:07:11;;;;;;;1.60;1.42;;;;;;;;;;6282944;28;20299;-70
2023/10/05 11:10:18;;;;;;;1.63;1.50;;;;;;;;;;6282083;28;20302;-70
2023/10/05 11:13:24;;;;;;;2.05;1.50;;;;;;;;;;6282786;28;20294;-70
2023/10/05 11:16:35;;;;;;;1.80;1.70;;;;;;;;;;6282382;28;20295;-69
2023/10/05 11:19:40;;;;;;;2.90;1.45;;;;;;;;;;6282626;28;20299;-70
2023/10/05 11:22:44;;;;;;;5.40;1.70;;;;;;;;;;6281407;28;20294;-71
2023/10/05 11:25:51;;;;;;;1.75;1.65;;;;;;;;;;6282117;28;20322;-69
2023/10/05 11:29:15;;;;;;;4.60;1.20;;;;;;;;;;6282500;28;20307;-70
2023/10/05 11:32:24;;;;;;;3.03;1.42;;;;;;;;;;6282039;28;20356;-69
2023/10/05 11:35:49;;;;;;;4.18;2.45;;;;;;;;;;6281911;28;20286;-68
2023/10/05 11:38:57;;;;;;;4.40;1.60;;;;;;;;;;6282446;28;20619;-70
2023/10/05 11:42:03;;;;;;;2.47;1.70;;;;;;;;;;6280862;28;20299;-71
2023/10/05 11:45:16;;;;;;;1.73;1.55;;;;;;;;;;6281696;28;20382;-70
2023/10/05 11:48:32;;;;;;;1.65;1.33;;;;;;;;;;6282017;28;20634;-70
2023/10/05 11:51:41;;;;;;;3.90;1.30;;;;;;;;;;6281718;28;20291;-68
2023/10/05 11:54:45;;;;;;;1.60;1.50;;;;;;;;;;6281138;28;20268;-69
2023/10/05 11:57:51;;;;;;;4.15;1.67;;;;;;;;;;6281518;28;20287;-70
2023/10/05 12:00:55;;;;;;;2.10;1.33;;;;;;;;;;6281209;28;20590;-69
2023/10/05 12:04:04;;;;;;;2.58;1.40;;;;;;;;;;6281873;28;20310;-70
2023/10/05 12:07:12;;;;;;;2.70;1.40;;;;;;;;;;6281059;28;20646;-70
2023/10/05 12:10:16;;;;;;;3.70;1.40;;;;;;;;;;6280873;28;20326;-70
2023/10/05 12:13:22;;;;;;;1.50;1.40;;;;;;;;;;6281216;28;20239;-70
2023/10/05 12:16:27;;;;;;;1.52;1.35;;;;;;;;;;6280806;28;20322;-70
2023/10/05 12:19:33;;;;;;;3.30;1.50;;;;;;;;;;6281375;28;20310;-70
2023/10/05 12:22:37;;;;;;;1.20;1.20;;;;;;;;;;6280059;28;20310;-69
2023/10/05 12:25:42;;;;;;;2.15;1.25;;;;;;;;;;6280562;28;20307;-71
2023/10/05 12:28:46;;;;;;;1.40;1.40;;;;;;;;;;6280921;28;20298;-70
2023/10/05 12:31:50;;;;;;;2.60;1.45;;;;;;;;;;6280210;28;20509;-71
2023/10/05 12:34:59;;;;;;;1.30;1.20;;;;;;;;;;6279498;28;20540;-70
2023/10/05 12:38:06;;;;;;;1.92;1.40;;;;;;;;;;6280899;28;20287;-68
2023/10/05 12:41:16;;;;;;;2.15;1.30;;;;;;;;;;6278421;28;20307;-70
2023/10/05 12:44:20;;;;;;;2.53;1.20;;;;;;;;;;6280570;28;20607;-70
2023/10/05 12:47:28;;;;;;;5.60;1.38;;;;;;;;;;6280026;28;20631;-72
2023/10/05 12:50:33;;;;;;;1.30;1.20;;;;;;;;;;6279994;28;20323;-71
2023/10/05 12:53:37;;;;;;;1.70;1.25;;;;;;;;;;6280509;28;20508;-70
2023/10/05 12:56:41;;;;;;;1.95;1.13;;;;;;;;;;6268539;28;20303;-70
2023/10/05 12:59:48;;;;;;;1.88;1.50;;;;;;;;;;6255424;28;20624;-70
2023/10/05 13:02:52;;;;;;;1.55;1.40;;;;;;;;;;6255921;28;20324;-71
2023/10/05 13:06:00;;;;;;;1.40;1.30;;;;;;;;;;6246906;28;20292;-71
2023/10/05 13:09:04;;;;;;;1.48;1.33;;;;;;;;;;6231489;28;20327;-70
2023/10/05 13:12:12;;;;;;;1.30;1.30;;;;;;;;;;6240406;28;20320;-71
2023/10/05 13:15:19;;;;;;;2.58;1.30;;;;;;;;;;6255112;28;20307;-71
2023/10/05 13:18:25;;;;;;;1.38;1.27;;;;;;;;;;6255780;28;20300;-71
2023/10/05 13:21:31;;;;;;;3.97;1.50;;;;;;;;;;6255106;28;20392;-71
2023/10/05 13:24:36;;;;;;;4.45;1.38;;;;;;;;;;6255662;28;20323;-71
2023/10/05 13:27:41;;;;;;;3.20;1.40;;;;;;;;;;6229682;28;20300;-72
2023/10/05 13:30:48;;;;;;;1.65;1.40;;;;;;;;;;6230126;28;20577;-72
2023/10/05 13:33:54;;;;;;;1.88;1.38;;;;;;;;;;6232299;28;20264;-71
2023/10/05 13:36:59;;;;;;;4.68;1.48;;;;;;;;;;6235240;28;20417;-71
2023/10/05 13:40:05;;;;;;;1.67;1.40;;;;;;;;;;6233107;28;20319;-72
2023/10/05 13:43:09;;;;;;;1.15;1.13;;;;;;;;;;6235459;28;20597;-72
2023/10/05 13:46:17;;;;;;;3.50;1.27;;;;;;;;;;6234908;28;20448;-71
2023/10/05 13:49:26;;;;;;;1.38;1.38;;;;;;;;;;6235469;28;20581;-71
2023/10/05 13:52:33;;;;;;;1.30;1.20;;;;;;;;;;6234724;28;20384;-72
2023/10/05 13:55:37;;;;;;;2.95;1.20;;;;;;;;;;6237184;28;20292;-73
2023/10/05 13:58:43;;;;;;;1.85;1.45;;;;;;;;;;6259691;28;20287;-71
2023/10/05 14:01:52;;;;;;;2.40;1.33;;;;;;;;;;6259610;28;20648;-71
2023/10/05 14:04:57;;;;;;;1.30;1.20;;;;;;;;;;6259459;28;20303;-71
2023/10/05 14:08:10;;;;;;;1.67;1.30;;;;;;;;;;6259647;28;20390;-71
2023/10/05 14:11:14;;;;;;;2.03;1.45;;;;;;;;;;6257963;28;20304;-71
2023/10/05 14:14:18;;;;;;;1.45;1.40;;;;;;;;;;6259137;28;20292;-71
2023/10/05 14:17:22;;;;;;;1.30;1.30;;;;;;;;;;6258552;28;20299;-70
2023/10/05 14:20:26;;;;;;;1.17;1.17;;;;;;;;;;6258443;28;20283;-70
2023/10/05 14:23:32;;;;;;;1.42;1.35;;;;;;;;;;6258994;28;20299;-69
2023/10/05 14:26:36;;;;;;;4.78;1.77;;;;;;;;;;6258790;28;20303;-70
2023/10/05 14:29:44;;;;;;;1.55;1.10;;;;;;;;;;6258873;28;20354;-70
2023/10/05 14:32:50;;;;;;;1.48;1.17;;;;;;;;;;6275561;28;20314;-71
2023/10/05 14:35:56;;;;;;;1.30;1.30;;;;;;;;;;6282871;28;20371;-70
2023/10/05 14:39:06;;;;;;;1.20;1.20;;;;;;;;;;6282916;28;20311;-75
2023/10/05 14:42:11;;;;;;;3.30;1.17;;;;;;;;;;6258180;28;20612;-72
2023/10/05 14:45:15;;;;;;;2.40;1.10;;;;;;;;;;6257543;28;20287;-69
2023/10/05 14:48:21;;;;;;;1.08;1.08;;;;;;;;;;6258491;28;20314;-71
2023/10/05 14:51:26;;;;;;;1.42;1.33;;;;;;;;;;6258138;28;20291;-71
2023/10/05 14:54:32;;;;;;;1.35;1.35;;;;;;;;;;6258552;28;20452;-73
2023/10/05 14:57:40;;;;;;;1.33;1.33;;;;;;;;;;6257462;28;20612;-69
2023/10/05 15:00:45;;;;;;;2.38;1.20;;;;;;;;;;6240165;28;20495;-69
2023/10/05 15:03:49;;;;;;;1.95;1.17;;;;;;;;;;6256635;28;20421;-74
2023/10/05 15:06:54;;;;;;;2.10;1.25;;;;;;;;;;6257503;28;20346;-70
2023/10/05 15:10:01;;;;;;;1.20;1.20;;;;;;;;;;6257452;28;20477;-69
2023/10/05 15:13:06;;;;;;;1.05;1.05;;;;;;;;;;6274873;28;20288;-71
2023/10/05 15:16:10;;;;;;;2.10;1.35;;;;;;;;;;6282176;28;20294;-70
2023/10/05 15:19:16;;;;;;;1.30;1.20;;;;;;;;;;6282679;28;20294;-70
2023/10/05 15:22:21;;;;;;;5.78;1.55;;;;;;;;;;6282082;28;20307;-72
2023/10/05 15:25:26;;;;;;;2.40;1.58;;;;;;;;;;6281640;28;20295;-70
2023/10/05 15:28:30;;;;;;;2.72;1.63;;;;;;;;;;6280805;28;20295;-71
2023/10/05 15:31:34;;;;;;;1.58;1.50;;;;;;;;;;6281979;28;20298;-71
2023/10/05 15:34:39;;;;;;;3.03;1.55;;;;;;;;;;6282048;28;20302;-71
2023/10/05 15:37:44;;;;;;;1.40;1.40;;;;;;;;;;6280937;28;20294;-70
2023/10/05 15:40:50;;;;;;;2.38;1.80;;;;;;;;;;6279428;28;20327;-70
2023/10/05 15:43:53;;;;;;;1.83;1.52;;;;;;;;;;6281704;28;20291;-70
2023/10/05 15:46:58;;;;;;;1.90;1.75;;;;;;;;;;6280071;28;20478;-70
2023/10/05 15:50:02;;;;;;;1.25;1.20;;;;;;;;;;6281175;28;20299;-72
2023/10/05 15:53:07;;;;;;;1.48;1.40;;;;;;;;;;6281673;28;20283;-69
2023/10/05 15:56:13;;;;;;;1.88;1.50;;;;;;;;;;6280453;28;20498;-70
2023/10/05 15:59:17;;;;;;;2.47;1.73;;;;;;;;;;6280600;28;20310;-71
2023/10/05 16:02:20;;;;;;;2.00;1.90;;;;;;;;;;6281286;28;20306;-70
2023/10/05 16:05:26;;;;;;;2.55;1.70;;;;;;;;;;6281231;28;20308;-70
2023/10/05 16:08:31;;;;;;;2.97;1.60;;;;;;;;;;6282084;28;20303;-70
2023/10/05 16:11:36;;;;;;;3.70;2.40;;;;;;;;;;6281049;28;20381;-71
2023/10/05 16:14:39;;;;;;;3.13;2.00;;;;;;;;;;6281459;28;20291;-71
2023/10/05 16:17:44;;;;;;;3.67;2.20;;;;;;;;;;6280542;28;20298;-70
2023/10/05 16:20:49;;;;;;;1.80;1.80;;;;;;;;;;6281397;28;20391;-70
2023/10/05 16:23:54;;;;;;;1.92;1.70;;;;;;;;;;6281257;28;20295;-69
2023/10/05 16:26:59;;;;;;;1.83;1.83;;;;;;;;;;6281018;28;20300;-70
2023/10/05 16:30:06;;;;;;;1.67;1.60;;;;;;;;;;6281185;28;20290;-71
2023/10/05 16:33:10;;;;;;;5.30;1.65;;;;;;;;;;6280190;28;20472;-70
2023/10/05 16:36:14;;;;;;;2.50;2.10;;;;;;;;;;6280857;28;20623;-71
2023/10/05 16:39:21;;;;;;;1.88;1.77;;;;;;;;;;6279094;28;20383;-71
2023/10/05 16:42:26;;;;;;;1.63;1.52;;;;;;;;;;6280696;28;20298;-69
2023/10/05 16:45:30;;;;;;;1.75;1.75;;;;;;;;;;6279344;28;20485;-70
2023/10/05 16:48:35;;;;;;;2.00;2.00;;;;;;;;;;6281383;28;20463;-70
2023/10/05 16:51:41;;;;;;;3.42;2.30;;;;;;;;;;6279849;28;20299;-71
2023/10/05 16:54:45;;;;;;;2.28;2.10;;;;;;;;;;6280698;28;20278;-74
2023/10/05 16:57:53;;;;;;;2.22;2.08;;;;;;;;;;6280578;28;20559;-72
2023/10/05 17:00:58;;;;;;;2.88;2.17;;;;;;;;;;6280641;28;20307;-72
2023/10/05 17:04:03;;;;;;;2.17;2.00;;;;;;;;;;6281262;28;20290;-71
2023/10/05 17:07:07;;;;;;;2.35;2.15;;;;;;;;;;6280437;28;20307;-73
2023/10/05 17:10:13;;;;;;;3.40;2.13;;;;;;;;;;6280140;28;20655;-72
2023/10/05 17:13:18;;;;;;;2.13;2.03;;;;;;;;;;6280712;28;20589;-74
2023/10/05 17:16:22;;;;;;;2.15;1.92;;;;;;;;;;6280346;28;20315;-72
2023/10/05 17:19:26;;;;;;;2.67;1.90;;;;;;;;;;6280915;28;20310;-73
2023/10/05 17:22:30;;;;;;;2.75;1.92;;;;;;;;;;6280543;28;20291;-71
2023/10/05 17:25:40;;;;;;;3.58;2.28;;;;;;;;;;6280655;28;20318;-71
2023/10/05 17:28:45;;;;;;;2.20;2.10;;;;;;;;;;6280670;28;20534;-71
2023/10/05 17:31:49;;;;;;;2.63;2.40;;;;;;;;;;6280260;28;20330;-71
2023/10/05 17:34:53;;;;;;;2.83;2.03;;;;;;;;;;6280089;28;20294;-71
2023/10/05 17:37:57;;;;;;;5.38;2.17;;;;;;;;;;6280900;28;20367;-72
2023/10/05 17:41:01;;;;;;;2.25;2.10;;;;;;;;;;6280481;28;20322;-71
2023/10/05 17:44:07;;;;;;;2.05;1.95;;;;;;;;;;6282270;28;20291;-71
2023/10/05 17:47:11;;;;;;;5.72;2.15;;;;;;;;;;6279496;28;20330;-71
2023/10/05 17:50:15;;;;;;;2.20;2.10;;;;;;;;;;6280468;28;20291;-72
2023/10/05 17:53:19;;;;;;;2.72;2.53;;;;;;;;;;6280704;28;20342;-70
2023/10/05 17:56:23;;;;;;;3.65;2.05;;;;;;;;;;6280212;28;20311;-74
2023/10/05 17:59:28;;;;;;;3.20;1.90;;;;;;;;;;6280637;28;20488;-72
2023/10/05 18:02:34;;;;;;;1.92;1.75;;;;;;;;;;6280252;28;20298;-71
2023/10/05 18:05:39;;;;;;;2.22;2.00;;;;;;;;;;6280484;28;20295;-70
2023/10/05 18:08:42;;;;;;;4.93;2.03;;;;;;;;;;6280707;28;20311;-72
2023/10/05 18:11:48;;;;;;;4.95;2.10;;;;;;;;;;6280059;28;20295;-71
2023/10/05 18:14:55;;;;;;;3.58;2.00;;;;;;;;;;6279560;28;20287;-70
2023/10/05 18:18:00;;;;;;;5.15;2.22;;;;;;;;;;6280062;28;20537;-70
2023/10/05 18:21:05;;;;;;;2.17;1.98;;;;;;;;;;6281255;28;20300;-71
2023/10/05 18:24:09;;;;;;;4.93;2.05;;;;;;;;;;6284177;28;20306;-70
2023/10/05 18:27:13;;;;;;;2.28;2.08;;;;;;;;;;6283622;28;20596;-72
2023/10/05 18:30:18;;;;;;;2.65;2.42;;;;;;;;;;6283659;28;20298;-70
2023/10/05 18:33:22;;;;;;;2.53;2.13;;;;;;;;;;6284102;28;20564;-73
2023/10/05 18:36:26;;;;;;;2.40;2.13;;;;;;;;;;6283412;28;20303;-70
2023/10/05 18:39:30;;;;;;;2.10;1.98;;;;;;;;;;6281887;28;20583;-71
2023/10/05 18:42:34;;;;;;;5.60;2.33;;;;;;;;;;6283713;28;20295;-72